Time;durP1;ratioP1;P1;durP2;ratioP2;P2;SDS_P1;SDS_P2;PMS_P1;PMS_P2;Temp;Humidity;BMP_temperature;BMP_pressure;BME280_temperature;BME280_humidity;BME280_pressure;Samples;Min_cycle;Max_cycle;Signal;HPM_P1;HPM_P2
2021/10/05 00:02:07;;;;;;;4.18;1.80;;;10.90;99.90;;;;;;5106948;28;20134;-47
2021/10/05 00:04:35;;;;;;;6.20;1.92;;;10.80;99.90;;;;;;5108383;28;20047;-46
2021/10/05 00:07:01;;;;;;;7.00;1.60;;;10.90;99.90;;;;;;5109509;28;20462;-45
2021/10/05 00:09:28;;;;;;;3.67;1.67;;;10.80;99.90;;;;;;5090893;28;20051;-45
2021/10/05 00:11:54;;;;;;;3.55;1.88;;;10.80;99.90;;;;;;5109096;28;20051;-45
2021/10/05 00:14:20;;;;;;;4.88;1.95;;;10.80;99.90;;;;;;5109427;28;20407;-45
2021/10/05 00:16:46;;;;;;;3.45;1.77;;;10.80;99.90;;;;;;5090534;28;20180;-44
2021/10/05 00:19:15;;;;;;;9.25;1.90;;;10.70;99.90;;;;;;5091967;28;20052;-46
2021/10/05 00:21:42;;;;;;;3.55;1.75;;;10.70;99.90;;;;;;5108766;28;20504;-46
2021/10/05 00:24:11;;;;;;;3.55;1.83;;;10.60;99.90;;;;;;5089501;28;20091;-45
2021/10/05 00:26:40;;;;;;;5.07;2.03;;;10.60;99.90;;;;;;5104659;28;20073;-44
2021/10/05 00:29:09;;;;;;;4.95;1.98;;;10.60;99.90;;;;;;5090989;28;20809;-45
2021/10/05 00:31:35;;;;;;;4.68;2.22;;;10.50;99.90;;;;;;5108423;28;20055;-46
2021/10/05 00:34:01;;;;;;;5.43;2.08;;;10.50;99.90;;;;;;5108761;28;20062;-44
2021/10/05 00:36:27;;;;;;;3.67;1.40;;;10.40;99.90;;;;;;5109186;28;20101;-45
2021/10/05 00:38:53;;;;;;;5.47;1.80;;;10.40;99.90;;;;;;5109288;28;20435;-45
2021/10/05 00:41:19;;;;;;;5.70;1.70;;;10.40;99.90;;;;;;5108824;28;20407;-45
2021/10/05 00:43:46;;;;;;;5.32;2.45;;;10.40;99.90;;;;;;5108222;28;20706;-43
2021/10/05 00:46:12;;;;;;;6.97;1.80;;;10.40;99.90;;;;;;5108551;28;20055;-45
2021/10/05 00:48:43;;;;;;;4.60;2.03;;;10.30;99.90;;;;;;5109351;28;20122;-45
2021/10/05 00:51:11;;;;;;;5.28;1.95;;;10.30;99.90;;;;;;5108385;28;20047;-45
2021/10/05 00:53:40;;;;;;;6.38;1.75;;;10.30;99.90;;;;;;5108417;28;20681;-45
2021/10/05 00:56:07;;;;;;;5.57;1.83;;;10.30;99.90;;;;;;5089124;28;20090;-46
2021/10/05 00:58:33;;;;;;;7.80;2.22;;;10.30;99.90;;;;;;5108537;28;20050;-46
2021/10/05 01:01:00;;;;;;;7.07;2.58;;;10.30;99.90;;;;;;5108108;28;20792;-46
2021/10/05 01:03:27;;;;;;;6.32;2.55;;;10.40;99.90;;;;;;5107992;28;20078;-47
2021/10/05 01:05:55;;;;;;;7.97;2.92;;;10.30;99.90;;;;;;5107950;28;20109;-44
2021/10/05 01:08:22;;;;;;;6.72;2.85;;;10.30;99.90;;;;;;5089738;28;20055;-47
2021/10/05 01:10:48;;;;;;;4.82;2.53;;;10.20;99.90;;;;;;5107911;28;20109;-46
2021/10/05 01:13:17;;;;;;;6.18;2.70;;;10.20;99.90;;;;;;5108154;28;20103;-45
2021/10/05 01:15:43;;;;;;;6.65;3.20;;;10.20;99.90;;;;;;5107342;28;20048;-45
2021/10/05 01:18:09;;;;;;;6.63;3.38;;;10.10;99.90;;;;;;5107605;28;20386;-46
2021/10/05 01:21:08;;;;;;;6.57;3.30;;;10.10;99.90;;;;;;5106375;28;20052;-44
2021/10/05 01:23:34;;;;;;;6.28;3.40;;;10.00;99.90;;;;;;5107938;28;20154;-46
2021/10/05 01:26:02;;;;;;;6.25;4.38;;;10.00;99.90;;;;;;5089593;28;20047;-44
2021/10/05 01:28:28;;;;;;;5.75;3.15;;;9.90;99.90;;;;;;5108344;28;20062;-46
2021/10/05 01:30:55;;;;;;;6.93;3.30;;;9.90;99.90;;;;;;5108558;28;20385;-47
2021/10/05 01:33:24;;;;;;;8.45;3.47;;;9.80;99.90;;;;;;5108148;28;20108;-45
2021/10/05 01:35:50;;;;;;;6.50;3.92;;;9.70;99.90;;;;;;5107168;28;20112;-47
2021/10/05 01:38:17;;;;;;;9.57;4.40;;;9.70;99.90;;;;;;5106226;28;20051;-47
2021/10/05 01:40:44;;;;;;;8.95;4.00;;;9.70;99.90;;;;;;5086190;28;20527;-45
2021/10/05 01:43:10;;;;;;;8.30;4.00;;;9.60;99.90;;;;;;5105959;28;20095;-48
2021/10/05 01:45:38;;;;;;;8.35;4.32;;;9.60;99.90;;;;;;5104354;28;20058;-45
2021/10/05 01:48:07;;;;;;;8.68;4.55;;;9.60;99.90;;;;;;5102656;28;20080;-47
2021/10/05 01:50:34;;;;;;;10.32;5.03;;;9.50;99.90;;;;;;5105828;28;20052;-44
2021/10/05 01:53:01;;;;;;;10.07;4.32;;;9.50;99.90;;;;;;5081949;28;20048;-45
2021/10/05 01:55:29;;;;;;;10.45;4.03;;;9.50;99.90;;;;;;5102465;28;20051;-45
2021/10/05 01:57:55;;;;;;;9.90;4.80;;;9.50;99.90;;;;;;5088800;28;20098;-44
2021/10/05 02:00:22;;;;;;;8.13;4.47;;;9.50;99.90;;;;;;5088998;28;20546;-46
2021/10/05 02:02:49;;;;;;;7.70;4.50;;;9.50;99.90;;;;;;5107515;28;20123;-43
2021/10/05 02:05:15;;;;;;;9.80;5.47;;;9.60;99.90;;;;;;5105680;28;20051;-45
2021/10/05 02:07:41;;;;;;;9.23;4.53;;;9.60;99.90;;;;;;5105904;28;20829;-46
2021/10/05 02:10:09;;;;;;;13.68;5.45;;;9.60;99.90;;;;;;5106053;28;20146;-45
2021/10/05 02:12:35;;;;;;;9.85;4.63;;;9.60;99.90;;;;;;5106071;28;20487;-44
2021/10/05 02:15:02;;;;;;;9.63;4.80;;;9.60;99.90;;;;;;5106373;28;20060;-45
2021/10/05 02:17:28;;;;;;;9.20;4.45;;;9.60;99.90;;;;;;5107681;28;20135;-45
2021/10/05 02:19:54;;;;;;;9.27;4.88;;;9.70;99.90;;;;;;5088396;28;20132;-45
2021/10/05 02:22:20;;;;;;;5.78;4.63;;;9.60;99.90;;;;;;5107113;28;20048;-46
2021/10/05 02:24:49;;;;;;;11.32;5.55;;;9.50;99.90;;;;;;5107397;28;20051;-43
2021/10/05 02:27:21;;;;;;;8.40;5.25;;;9.50;99.90;;;;;;5105461;28;20087;-45
2021/10/05 02:29:48;;;;;;;10.73;5.32;;;9.50;99.90;;;;;;5111771;28;20059;-45
2021/10/05 02:32:14;;;;;;;8.65;5.97;;;9.50;99.90;;;;;;5110456;28;20058;-45
2021/10/05 02:34:41;;;;;;;11.73;5.78;;;9.50;99.90;;;;;;5111577;28;20048;-48
2021/10/05 02:37:08;;;;;;;9.43;6.15;;;9.40;99.90;;;;;;5109841;28;20101;-45
2021/10/05 02:39:34;;;;;;;8.77;6.30;;;9.50;99.90;;;;;;5110596;28;20080;-45
2021/10/05 02:42:01;;;;;;;8.32;6.28;;;9.40;99.90;;;;;;5109153;28;20135;-43
2021/10/05 02:44:27;;;;;;;12.45;6.75;;;9.40;99.90;;;;;;5099005;28;20048;-45
2021/10/05 02:46:54;;;;;;;8.23;6.63;;;9.40;99.90;;;;;;5104400;28;20047;-46
2021/10/05 02:49:20;;;;;;;12.02;7.30;;;9.30;99.90;;;;;;5093202;28;20135;-45
2021/10/05 02:51:46;;;;;;;10.15;7.15;;;9.30;99.90;;;;;;5096359;28;20493;-46
2021/10/05 02:54:12;;;;;;;12.82;7.78;;;9.30;99.90;;;;;;5091273;28;20859;-46
2021/10/05 02:56:40;;;;;;;10.82;7.68;;;9.30;99.90;;;;;;5110298;28;20511;-44
2021/10/05 02:59:06;;;;;;;9.95;7.60;;;9.20;99.90;;;;;;5108290;28;20047;-47
2021/10/05 03:01:33;;;;;;;9.55;7.70;;;9.20;99.90;;;;;;5110962;28;20111;-47
2021/10/05 03:03:59;;;;;;;11.13;7.97;;;9.20;99.90;;;;;;5110370;28;20055;-45
2021/10/05 03:06:25;;;;;;;14.55;8.10;;;9.20;99.90;;;;;;5111809;28;20591;-44
2021/10/05 03:08:54;;;;;;;13.38;8.40;;;9.10;99.90;;;;;;5109191;28;20043;-44
2021/10/05 03:11:21;;;;;;;11.52;7.97;;;9.10;99.90;;;;;;5092395;28;20059;-46
2021/10/05 03:13:50;;;;;;;11.88;8.77;;;9.10;99.90;;;;;;5109577;28;20054;-45
2021/10/05 03:16:16;;;;;;;11.15;8.73;;;9.10;99.90;;;;;;5091418;28;20112;-47
2021/10/05 03:18:43;;;;;;;9.73;8.45;;;9.10;99.90;;;;;;5109775;28;20059;-45
2021/10/05 03:21:11;;;;;;;11.63;9.05;;;9.10;99.90;;;;;;5107797;28;20431;-44
2021/10/05 03:23:38;;;;;;;11.45;8.95;;;9.00;99.90;;;;;;5108148;28;20055;-45
2021/10/05 03:26:04;;;;;;;10.65;9.30;;;9.00;99.90;;;;;;5109256;28;20091;-47
2021/10/05 03:28:33;;;;;;;11.07;8.98;;;9.00;99.90;;;;;;5090844;28;20145;-44
2021/10/05 03:31:00;;;;;;;11.70;9.52;;;9.00;99.90;;;;;;5091552;28;20055;-46
2021/10/05 03:33:26;;;;;;;11.20;9.30;;;9.00;99.90;;;;;;5108102;28;20048;-46
2021/10/05 03:35:52;;;;;;;9.50;8.55;;;9.00;99.90;;;;;;5108079;28;20072;-45
2021/10/05 03:38:22;;;;;;;13.48;10.75;;;9.00;99.90;;;;;;5106130;28;20055;-47
2021/10/05 03:40:49;;;;;;;12.32;10.00;;;9.00;99.90;;;;;;5109334;28;20052;-45
2021/10/05 03:43:20;;;;;;;12.52;9.70;;;9.00;99.90;;;;;;5089726;28;20530;-44
2021/10/05 03:45:46;;;;;;;11.48;9.68;;;9.00;99.90;;;;;;5107924;28;20050;-45
2021/10/05 03:48:13;;;;;;;12.15;9.57;;;9.00;99.90;;;;;;5107249;28;20048;-45
2021/10/05 03:50:40;;;;;;;12.75;10.32;;;8.90;99.90;;;;;;5107132;28;20470;-47
2021/10/05 03:53:06;;;;;;;10.85;9.27;;;8.90;99.90;;;;;;5105454;28;20047;-49
2021/10/05 03:55:32;;;;;;;15.75;10.80;;;8.90;99.90;;;;;;5104258;28;20055;-45
2021/10/05 03:57:58;;;;;;;12.48;10.50;;;9.00;99.90;;;;;;5105704;28;20523;-46
2021/10/05 04:00:24;;;;;;;12.15;10.55;;;8.90;99.90;;;;;;5088567;28;20079;-44
2021/10/05 04:02:53;;;;;;;11.05;9.95;;;8.90;99.90;;;;;;5107246;28;20059;-47
2021/10/05 04:05:22;;;;;;;11.95;10.48;;;9.00;99.90;;;;;;5089707;28;20055;-44
2021/10/05 04:07:48;;;;;;;12.98;9.98;;;8.90;99.90;;;;;;5108707;28;20074;-47
2021/10/05 04:10:14;;;;;;;13.68;9.77;;;8.90;99.90;;;;;;5108182;28;20051;-46
2021/10/05 04:12:40;;;;;;;10.88;9.55;;;8.90;99.90;;;;;;5106589;28;20054;-44
2021/10/05 04:15:06;;;;;;;13.18;10.35;;;8.90;99.90;;;;;;5071776;28;20768;-46
2021/10/05 04:17:34;;;;;;;11.70;10.50;;;9.00;99.90;;;;;;5108842;28;20663;-51
2021/10/05 04:20:00;;;;;;;11.57;10.30;;;9.00;99.90;;;;;;5108681;28;20101;-45
2021/10/05 04:22:28;;;;;;;14.50;10.40;;;9.00;99.90;;;;;;5104301;28;20051;-44
2021/10/05 04:24:54;;;;;;;12.57;9.50;;;9.00;99.90;;;;;;5109028;28;20057;-45
2021/10/05 04:27:20;;;;;;;13.80;10.45;;;9.00;99.90;;;;;;5108165;28;20055;-45
2021/10/05 04:29:49;;;;;;;14.25;10.95;;;9.00;99.90;;;;;;5106680;28;20054;-44
2021/10/05 04:32:15;;;;;;;10.98;9.73;;;9.00;99.90;;;;;;5107295;28;20052;-44
2021/10/05 04:34:43;;;;;;;12.82;10.73;;;9.10;99.90;;;;;;5088384;28;20457;-45
2021/10/05 04:37:11;;;;;;;14.98;10.48;;;9.00;99.90;;;;;;5100822;28;20468;-45
2021/10/05 04:39:37;;;;;;;12.05;10.32;;;9.10;99.90;;;;;;5097036;28;20056;-46
2021/10/05 04:42:04;;;;;;;12.20;9.65;;;9.00;99.90;;;;;;5106792;28;20496;-45
2021/10/05 04:44:30;;;;;;;11.82;9.15;;;9.00;99.90;;;;;;5103903;28;20047;-45
2021/10/05 04:47:01;;;;;;;10.63;9.55;;;9.00;99.90;;;;;;5106430;28;20059;-47
2021/10/05 04:49:27;;;;;;;10.77;9.50;;;9.00;99.90;;;;;;5106870;28;20089;-46
2021/10/05 04:51:54;;;;;;;11.73;9.95;;;9.00;99.90;;;;;;5076786;28;20053;-46
2021/10/05 04:54:21;;;;;;;13.85;10.35;;;9.00;99.90;;;;;;5105585;28;20131;-46
2021/10/05 04:56:48;;;;;;;11.48;10.07;;;9.00;99.90;;;;;;5108602;28;20051;-47
2021/10/05 04:59:16;;;;;;;10.98;9.25;;;9.00;99.90;;;;;;5107473;28;20047;-45
2021/10/05 05:01:43;;;;;;;12.55;9.48;;;8.90;99.90;;;;;;5107569;28;20053;-47
2021/10/05 05:04:10;;;;;;;12.50;10.13;;;8.90;99.90;;;;;;5099607;28;20078;-46
2021/10/05 05:06:38;;;;;;;13.10;10.55;;;8.90;99.90;;;;;;5107313;28;20065;-47
2021/10/05 05:09:06;;;;;;;12.63;9.27;;;8.90;99.90;;;;;;5107715;28;20555;-47
2021/10/05 05:11:32;;;;;;;11.98;9.73;;;8.90;99.90;;;;;;5108397;28;20134;-47
2021/10/05 05:14:07;;;;;;;11.02;9.93;;;8.90;99.90;;;;;;5071806;28;20480;-47
2021/10/05 05:16:41;;;;;;;11.60;10.40;;;8.90;99.90;;;;;;5086988;28;20059;-46
2021/10/05 05:19:08;;;;;;;14.38;9.75;;;8.90;99.90;;;;;;5100932;28;20098;-45
2021/10/05 05:21:35;;;;;;;10.57;9.48;;;8.90;99.90;;;;;;5100361;28;20051;-45
2021/10/05 05:24:03;;;;;;;15.70;10.80;;;8.90;99.90;;;;;;5106692;28;20043;-48
2021/10/05 05:26:29;;;;;;;11.38;10.07;;;8.90;99.90;;;;;;5106229;28;20051;-48
2021/10/05 05:28:55;;;;;;;11.88;10.25;;;8.90;99.90;;;;;;5104185;28;20052;-48
2021/10/05 05:31:22;;;;;;;14.43;9.55;;;8.90;99.90;;;;;;5101269;28;20063;-49
2021/10/05 05:33:49;;;;;;;11.45;9.55;;;8.90;99.90;;;;;;5107534;28;20775;-46
2021/10/05 05:36:15;;;;;;;13.88;9.88;;;8.90;99.90;;;;;;5106118;28;20062;-48
2021/10/05 05:38:41;;;;;;;13.90;10.70;;;8.90;99.90;;;;;;5087607;28;20055;-45
2021/10/05 05:41:10;;;;;;;11.23;9.60;;;8.90;99.90;;;;;;5107531;28;20047;-47
2021/10/05 05:43:38;;;;;;;14.00;9.75;;;9.00;99.90;;;;;;5089894;28;20596;-42
2021/10/05 05:46:04;;;;;;;17.92;10.82;;;8.90;99.90;;;;;;5105391;28;20105;-50
2021/10/05 05:48:31;;;;;;;12.80;10.48;;;9.10;99.90;;;;;;5082152;28;20130;-45
2021/10/05 05:50:57;;;;;;;15.30;10.48;;;9.30;99.90;;;;;;5102300;28;20055;-45
2021/10/05 05:53:23;;;;;;;10.63;9.52;;;9.30;99.90;;;;;;5103314;28;20101;-46
2021/10/05 05:55:49;;;;;;;12.38;10.65;;;9.30;99.90;;;;;;5086142;28;20055;-49
2021/10/05 05:58:17;;;;;;;12.55;9.25;;;9.30;99.90;;;;;;5101095;28;20068;-45
2021/10/05 06:00:45;;;;;;;13.45;9.55;;;9.40;99.90;;;;;;5103639;28;20527;-42
2021/10/05 06:03:11;;;;;;;13.55;9.65;;;9.40;99.90;;;;;;5069315;28;20060;-45
2021/10/05 06:05:39;;;;;;;10.40;9.32;;;9.50;99.90;;;;;;5102593;28;20040;-45
2021/10/05 06:08:06;;;;;;;10.98;9.80;;;9.50;99.90;;;;;;5106085;28;20422;-46
2021/10/05 06:10:32;;;;;;;12.10;9.70;;;9.40;99.90;;;;;;5108928;28;20707;-44
2021/10/05 06:12:58;;;;;;;11.65;8.85;;;9.40;99.90;;;;;;5093149;28;20579;-50
2021/10/05 06:15:25;;;;;;;10.40;8.75;;;9.40;99.90;;;;;;5109971;28;20048;-49
2021/10/05 06:17:51;;;;;;;9.93;8.88;;;9.40;99.90;;;;;;5110908;28;20055;-51
2021/10/05 06:20:22;;;;;;;10.57;9.25;;;9.50;99.90;;;;;;5106983;28;20052;-51
2021/10/05 06:22:49;;;;;;;67.53;55.45;;;9.50;99.90;;;;;;5108255;28;20089;-47
2021/10/05 06:25:19;;;;;;;109.10;87.00;;;9.50;99.90;;;;;;5107034;28;20063;-49
2021/10/05 06:27:46;;;;;;;11.40;9.90;;;9.50;99.90;;;;;;5111367;28;20063;-49
2021/10/05 06:30:14;;;;;;;32.63;23.75;;;9.50;99.90;;;;;;5112202;28;20063;-48
2021/10/05 06:32:41;;;;;;;30.42;25.05;;;9.60;99.90;;;;;;5111454;28;20043;-46
2021/10/05 06:35:11;;;;;;;40.50;32.28;;;9.60;99.90;;;;;;5111777;28;20051;-45
2021/10/05 06:37:38;;;;;;;15.98;13.32;;;9.70;99.90;;;;;;5110528;28;20052;-47
2021/10/05 06:40:06;;;;;;;18.73;16.20;;;9.70;99.90;;;;;;5110872;28;20083;-49
2021/10/05 06:42:38;;;;;;;18.60;11.45;;;9.80;99.90;;;;;;5106577;28;20762;-49
2021/10/05 06:45:06;;;;;;;12.15;8.48;;;9.80;99.90;;;;;;5108713;28;20200;-49
2021/10/05 06:47:32;;;;;;;10.15;9.05;;;9.80;99.90;;;;;;5110135;28;20043;-50
2021/10/05 06:50:02;;;;;;;11.23;9.00;;;9.80;99.90;;;;;;5111133;28;20138;-48
2021/10/05 06:52:29;;;;;;;11.90;8.65;;;9.80;99.90;;;;;;5111927;28;20047;-52
2021/10/05 06:54:55;;;;;;;11.55;9.30;;;9.90;99.90;;;;;;5108834;28;20048;-48
2021/10/05 06:57:24;;;;;;;9.88;8.32;;;9.90;99.90;;;;;;5106784;28;20047;-46
2021/10/05 06:59:53;;;;;;;15.30;13.10;;;9.90;99.90;;;;;;5111564;28;20050;-48
2021/10/05 07:02:19;;;;;;;21.80;18.45;;;9.90;99.90;;;;;;5102411;28;20209;-48
2021/10/05 07:04:47;;;;;;;39.53;32.67;;;10.10;99.90;;;;;;5109276;28;20138;-47
2021/10/05 07:07:14;;;;;;;12.20;9.70;;;10.40;99.90;;;;;;5110482;28;20501;-50
2021/10/05 07:09:42;;;;;;;11.63;8.00;;;10.50;99.90;;;;;;5110886;28;20052;-47
2021/10/05 07:12:12;;;;;;;10.57;9.45;;;10.70;99.90;;;;;;5110802;28;20052;-50
2021/10/05 07:14:38;;;;;;;9.60;8.55;;;11.10;99.90;;;;;;5073305;28;20060;-46
2021/10/05 07:17:04;;;;;;;10.50;6.75;;;11.40;99.90;;;;;;5088201;28;20085;-47
2021/10/05 07:19:30;;;;;;;13.80;10.48;;;11.50;99.90;;;;;;5111629;28;20162;-46
2021/10/05 07:21:56;;;;;;;15.45;13.35;;;11.90;99.90;;;;;;5111355;28;20142;-50
2021/10/05 07:24:22;;;;;;;13.85;10.68;;;12.20;99.90;;;;;;5111644;28;20040;-49
2021/10/05 07:26:48;;;;;;;14.55;11.68;;;12.40;99.90;;;;;;5092716;28;20055;-48
2021/10/05 07:29:14;;;;;;;12.95;9.82;;;12.60;99.90;;;;;;5110326;28;20048;-49
2021/10/05 07:31:40;;;;;;;11.93;8.52;;;12.70;99.90;;;;;;5110634;28;20076;-49
2021/10/05 07:34:07;;;;;;;6.15;5.55;;;12.90;99.90;;;;;;5110806;28;20055;-47
2021/10/05 07:36:33;;;;;;;12.55;10.02;;;13.30;99.90;;;;;;5110580;28;20066;-47
2021/10/05 07:38:59;;;;;;;13.20;10.07;;;13.50;99.90;;;;;;5088626;28;20392;-47
2021/10/05 07:41:27;;;;;;;7.25;6.32;;;13.60;99.90;;;;;;5109989;28;20051;-51
2021/10/05 07:43:53;;;;;;;5.85;5.15;;;13.90;99.90;;;;;;5109792;28;20400;-47
2021/10/05 07:46:20;;;;;;;5.82;4.90;;;14.20;99.90;;;;;;5110173;28;20514;-48
2021/10/05 07:48:46;;;;;;;21.63;18.33;;;14.30;99.90;;;;;;5106130;28;20124;-49
2021/10/05 07:51:13;;;;;;;19.33;17.23;;;14.30;99.90;;;;;;5109442;28;20168;-47
2021/10/05 07:53:40;;;;;;;9.50;8.32;;;14.40;99.90;;;;;;5092080;28;20500;-48
2021/10/05 07:56:07;;;;;;;18.40;15.55;;;14.60;99.90;;;;;;5110544;28;20094;-47
2021/10/05 07:58:36;;;;;;;6.80;5.60;;;14.70;99.90;;;;;;5109620;28;20120;-47
2021/10/05 08:01:03;;;;;;;8.90;7.65;;;14.70;99.90;;;;;;5109321;28;20164;-47
2021/10/05 08:03:32;;;;;;;7.25;6.35;;;14.50;99.90;;;;;;5107685;28;20067;-49
2021/10/05 08:05:58;;;;;;;11.93;10.30;;;13.90;99.90;;;;;;5090989;28;20548;-46
2021/10/05 08:08:24;;;;;;;8.85;7.22;;;13.30;99.90;;;;;;5082960;28;20089;-47
2021/10/05 08:10:50;;;;;;;6.68;5.97;;;13.10;99.90;;;;;;5099409;28;20087;-46
2021/10/05 08:13:17;;;;;;;8.15;7.35;;;12.80;99.90;;;;;;5110109;28;20051;-48
2021/10/05 08:15:43;;;;;;;7.82;6.18;;;12.70;99.90;;;;;;5091597;28;20153;-48
2021/10/05 08:18:09;;;;;;;8.27;7.45;;;12.60;99.90;;;;;;5109672;28;20085;-46
2021/10/05 08:20:36;;;;;;;6.55;5.93;;;12.70;99.90;;;;;;5109664;28;20091;-49
2021/10/05 08:23:03;;;;;;;7.45;5.53;;;12.80;99.90;;;;;;5108939;28;20055;-47
2021/10/05 08:25:30;;;;;;;7.82;6.00;;;12.90;99.90;;;;;;5109576;28;20407;-47
2021/10/05 08:27:56;;;;;;;8.38;6.88;;;13.20;99.90;;;;;;5099098;28;20059;-46
2021/10/05 08:30:22;;;;;;;7.82;6.82;;;13.30;99.90;;;;;;5109744;28;20064;-45
2021/10/05 08:32:48;;;;;;;7.20;6.50;;;13.60;99.90;;;;;;5108974;28;20514;-49
2021/10/05 08:35:17;;;;;;;8.15;6.45;;;14.00;99.90;;;;;;5109374;28;20454;-50
2021/10/05 08:37:48;;;;;;;8.40;6.10;;;14.10;99.90;;;;;;5105130;28;20055;-45
2021/10/05 08:40:15;;;;;;;7.43;6.40;;;14.10;99.90;;;;;;5109455;28;20043;-47
2021/10/05 08:42:41;;;;;;;6.63;5.70;;;14.40;99.90;;;;;;5109085;28;20046;-47
2021/10/05 08:45:09;;;;;;;7.30;5.65;;;15.00;99.90;;;;;;5108044;28;20554;-46
2021/10/05 08:47:36;;;;;;;107.47;96.38;;;15.10;99.90;;;;;;5107179;28;20095;-48
2021/10/05 08:50:06;;;;;;;16.25;14.55;;;15.00;99.90;;;;;;5109302;28;20047;-46
2021/10/05 08:52:35;;;;;;;9.25;8.30;;;15.30;99.90;;;;;;5109742;28;20088;-47
2021/10/05 08:55:04;;;;;;;7.25;6.40;;;16.00;99.90;;;;;;5109000;28;20495;-49
2021/10/05 08:57:31;;;;;;;8.05;7.25;;;16.30;99.90;;;;;;5105494;28;20058;-47
2021/10/05 09:00:04;;;;;;;7.15;5.82;;;16.70;99.90;;;;;;5108865;28;20526;-45
2021/10/05 09:02:45;;;;;;;7.03;6.22;;;16.30;99.90;;;;;;5108333;28;20047;-47
2021/10/05 09:05:13;;;;;;;8.50;6.27;;;16.40;99.90;;;;;;5107040;28;20043;-46
2021/10/05 09:07:45;;;;;;;8.40;5.75;;;16.50;99.90;;;;;;5108476;28;20100;-47
2021/10/05 09:10:18;;;;;;;6.10;5.07;;;16.30;99.90;;;;;;5108191;28;20078;-50
2021/10/05 09:12:45;;;;;;;7.47;5.65;;;16.40;99.90;;;;;;5084858;28;20058;-51
2021/10/05 09:15:16;;;;;;;6.13;5.03;;;16.60;99.90;;;;;;5107909;28;20059;-49
2021/10/05 09:17:47;;;;;;;6.40;5.68;;;16.70;99.90;;;;;;5106573;28;20043;-48
2021/10/05 09:20:19;;;;;;;6.80;5.50;;;16.60;99.90;;;;;;5108622;28;20094;-50
2021/10/05 09:23:06;;;;;;;5.97;5.38;;;16.90;99.90;;;;;;5104898;28;20058;-50
2021/10/05 09:25:37;;;;;;;8.27;5.65;;;17.00;99.90;;;;;;5103673;28;20055;-48
2021/10/05 09:28:22;;;;;;;6.75;5.47;;;17.50;99.90;;;;;;5106885;28;20048;-50
2021/10/05 09:31:08;;;;;;;6.18;5.32;;;18.30;99.90;;;;;;5105841;28;20133;-51
2021/10/05 09:33:35;;;;;;;7.32;5.45;;;18.70;99.90;;;;;;5102306;28;20770;-48
2021/10/05 09:36:03;;;;;;;7.05;5.15;;;18.10;99.90;;;;;;5089710;28;20051;-49
2021/10/05 09:38:32;;;;;;;8.85;7.55;;;18.50;99.90;;;;;;5106198;28;20449;-45
2021/10/05 09:41:10;;;;;;;5.60;4.72;;;18.90;99.90;;;;;;5088580;28;20466;-47
2021/10/05 09:43:37;;;;;;;5.35;4.80;;;19.20;99.90;;;;;;5089309;28;20051;-48
2021/10/05 09:46:14;;;;;;;6.65;4.35;;;19.40;99.90;;;;;;5108134;28;20412;-47
2021/10/05 09:48:41;;;;;;;5.53;4.80;;;20.00;95.60;;;;;;5088154;28;20058;-46
2021/10/05 09:51:24;;;;;;;7.10;4.43;;;20.30;93.30;;;;;;5107969;28;20130;-48
2021/10/05 09:53:52;;;;;;;6.60;3.97;;;20.50;93.20;;;;;;5105529;28;20081;-50
2021/10/05 09:56:23;;;;;;;6.07;4.05;;;20.90;95.10;;;;;;5104293;28;20559;-50
2021/10/05 09:58:54;;;;;;;5.03;4.38;;;20.80;91.20;;;;;;5107335;28;20492;-47
2021/10/05 10:01:24;;;;;;;8.57;6.40;;;20.80;91.90;;;;;;5106659;28;20035;-50
2021/10/05 10:03:52;;;;;;;5.43;3.33;;;21.30;78.90;;;;;;5107148;28;20324;-47
2021/10/05 10:06:19;;;;;;;7.70;4.25;;;21.50;87.80;;;;;;5107736;28;20055;-47
2021/10/05 10:08:47;;;;;;;5.38;3.33;;;21.20;83.30;;;;;;5107912;28;20075;-48
2021/10/05 10:11:14;;;;;;;4.63;3.00;;;21.00;82.30;;;;;;5088761;28;20478;-47
2021/10/05 10:13:50;;;;;;;4.80;3.45;;;20.80;85.40;;;;;;5107258;28;20077;-48
2021/10/05 10:16:20;;;;;;;6.80;3.33;;;20.70;82.40;;;;;;5089453;28;20055;-48
2021/10/05 10:19:02;;;;;;;4.95;3.53;;;20.50;84.70;;;;;;5107241;28;20063;-48
2021/10/05 10:21:34;;;;;;;4.78;3.40;;;19.90;88.00;;;;;;5107638;28;20057;-50
2021/10/05 10:24:09;;;;;;;5.28;3.50;;;19.10;91.40;;;;;;5104339;28;20480;-48
2021/10/05 10:26:37;;;;;;;5.40;3.92;;;18.80;95.50;;;;;;5097866;28;20051;-47
2021/10/05 10:29:04;;;;;;;6.70;4.28;;;19.10;97.70;;;;;;5104962;28;20060;-49
2021/10/05 10:31:39;;;;;;;4.22;3.17;;;19.90;95.50;;;;;;5107574;28;20186;-49
2021/10/05 10:34:20;;;;;;;3.97;2.92;;;20.50;92.40;;;;;;5107361;28;20039;-51
2021/10/05 10:36:47;;;;;;;5.68;2.60;;;21.30;83.40;;;;;;5107650;28;20513;-50
2021/10/05 10:39:19;;;;;;;3.90;2.67;;;21.80;83.60;;;;;;5101371;28;20515;-50
2021/10/05 10:41:54;;;;;;;4.90;2.50;;;22.50;80.40;;;;;;5107314;28;20514;-47
2021/10/05 10:44:31;;;;;;;4.72;2.47;;;22.90;67.60;;;;;;5107138;28;20169;-50
2021/10/05 10:47:06;;;;;;;8.80;5.15;;;23.10;65.60;;;;;;5106451;28;20051;-47
2021/10/05 10:49:38;;;;;;;10.98;8.60;;;23.70;63.50;;;;;;5106947;28;20051;-50
2021/10/05 10:52:04;;;;;;;19.42;16.95;;;24.00;62.20;;;;;;5112564;28;20047;-47
2021/10/05 10:54:33;;;;;;;17.38;15.52;;;24.10;63.60;;;;;;5108887;28;20142;-47
2021/10/05 10:57:06;;;;;;;7.30;5.18;;;24.60;62.90;;;;;;5106752;28;20055;-50
2021/10/05 10:59:33;;;;;;;6.30;4.53;;;24.70;60.80;;;;;;5111121;28;20787;-48
2021/10/05 11:02:05;;;;;;;4.40;2.92;;;23.80;62.20;;;;;;5110928;28;20079;-46
2021/10/05 11:04:35;;;;;;;9.95;7.00;;;23.80;62.20;;;;;;5110851;28;20494;-48
2021/10/05 11:07:05;;;;;;;4.72;2.22;;;23.80;62.10;;;;;;5110904;28;20055;-49
2021/10/05 11:09:38;;;;;;;8.18;6.50;;;23.80;61.80;;;;;;5110099;28;20055;-52
2021/10/05 11:12:09;;;;;;;4.40;2.28;;;23.10;62.70;;;;;;5104726;28;20415;-48
2021/10/05 11:14:38;;;;;;;;;;;23.60;62.40;;;;;;5111208;28;20047;-47
2021/10/05 11:17:12;;;;;;;6.15;2.60;;;23.70;62.40;;;;;;5091080;28;20383;-48
2021/10/05 11:19:41;;;;;;;3.95;1.85;;;24.30;60.40;;;;;;5110100;28;20069;-49
2021/10/05 11:22:12;;;;;;;4.03;1.60;;;24.50;59.90;;;;;;5109932;28;20449;-50
2021/10/05 11:24:44;;;;;;;6.15;1.55;;;25.10;58.70;;;;;;5109285;28;20044;-50
2021/10/05 11:27:24;;;;;;;3.75;2.70;;;24.80;57.40;;;;;;5109873;28;20040;-46
2021/10/05 11:30:16;;;;;;;3.58;1.58;;;25.30;57.80;;;;;;5109708;28;20070;-48
2021/10/05 11:32:48;;;;;;;3.55;1.52;;;25.10;58.40;;;;;;5110067;28;20569;-47
2021/10/05 11:35:17;;;;;;;5.30;2.15;;;24.70;55.40;;;;;;5091435;28;20503;-48
2021/10/05 11:37:43;;;;;;;5.25;2.30;;;24.90;57.40;;;;;;5105241;28;20144;-47
2021/10/05 11:40:12;;;;;;;3.60;1.65;;;25.10;57.20;;;;;;5110084;28;20056;-46
2021/10/05 11:42:40;;;;;;;2.90;1.75;;;24.60;55.60;;;;;;5109491;28;20126;-51
2021/10/05 11:45:08;;;;;;;4.22;2.22;;;24.70;56.90;;;;;;5109481;28;20695;-50
2021/10/05 11:47:35;;;;;;;16.20;13.93;;;24.60;56.90;;;;;;5092141;28;20527;-52
2021/10/05 11:50:06;;;;;;;13.73;11.20;;;24.70;56.80;;;;;;5109875;28;20442;-51
2021/10/05 11:52:40;;;;;;;4.50;3.10;;;24.90;55.00;;;;;;5109422;28;20044;-49
2021/10/05 11:55:07;;;;;;;4.63;2.00;;;24.30;55.40;;;;;;5101714;28;20496;-49
2021/10/05 11:57:34;;;;;;;3.03;1.90;;;24.30;57.50;;;;;;5104876;28;20048;-50
2021/10/05 12:00:04;;;;;;;6.35;2.80;;;24.60;56.90;;;;;;5110435;28;20056;-48
2021/10/05 12:02:41;;;;;;;4.22;1.85;;;24.60;56.00;;;;;;5087471;28;20063;-47
2021/10/05 12:05:19;;;;;;;6.32;2.03;;;24.80;55.90;;;;;;5088430;28;20051;-47
2021/10/05 12:07:45;;;;;;;3.67;1.70;;;24.60;56.90;;;;;;5085709;28;20907;-50
2021/10/05 12:10:12;;;;;;;3.53;1.48;;;25.00;56.10;;;;;;5088834;28;20567;-47
2021/10/05 12:12:40;;;;;;;3.88;2.38;;;24.80;56.00;;;;;;5089150;28;20125;-50
2021/10/05 12:15:15;;;;;;;4.72;3.42;;;25.10;55.10;;;;;;5087881;28;20056;-49
2021/10/05 12:17:42;;;;;;;2.83;1.30;;;25.10;54.70;;;;;;5089340;28;20048;-50
2021/10/05 12:20:15;;;;;;;2.53;1.20;;;25.50;55.60;;;;;;5088952;28;20498;-46
2021/10/05 12:22:45;;;;;;;3.00;1.52;;;25.50;53.90;;;;;;5088651;28;20051;-47
2021/10/05 12:25:20;;;;;;;4.07;1.67;;;25.70;53.60;;;;;;5088616;28;20040;-48
2021/10/05 12:27:52;;;;;;;4.57;1.17;;;25.40;52.90;;;;;;5087878;28;20059;-48
2021/10/05 12:30:27;;;;;;;3.25;1.10;;;24.60;54.10;;;;;;5089092;28;20051;-46
2021/10/05 12:32:55;;;;;;;3.60;1.50;;;23.80;55.40;;;;;;5088981;28;20134;-46
2021/10/05 12:35:35;;;;;;;4.15;1.33;;;22.60;57.80;;;;;;5089149;28;20138;-46
2021/10/05 12:38:08;;;;;;;2.65;1.33;;;21.90;61.20;;;;;;5068607;28;20053;-48
2021/10/05 12:40:45;;;;;;;4.43;1.50;;;21.10;63.80;;;;;;5068725;28;20059;-48
2021/10/05 12:43:14;;;;;;;3.40;1.40;;;20.70;66.20;;;;;;5068850;28;20063;-46
2021/10/05 12:45:40;;;;;;;2.60;1.17;;;20.20;68.80;;;;;;5069510;28;20070;-46
2021/10/05 12:48:07;;;;;;;4.60;1.33;;;19.80;72.00;;;;;;5086621;28;20060;-47
2021/10/05 12:50:44;;;;;;;3.88;1.33;;;19.60;77.50;;;;;;5089126;28;20058;-45
2021/10/05 12:53:11;;;;;;;9.75;1.80;;;19.20;82.10;;;;;;5088601;28;20086;-46